Tarrant West's Hourly Summary for Saturday, May 5, 2018
Hour Temp
(f)
RH
(%)
Solar Rad.
(MJ/m2)
Rainfall
(in)
Wind
(mph)
5/5/2018 12:00 AM 61 89 0 0 2.83
5/5/2018 1:00 AM 59 94 0 0 2.77
5/5/2018 2:00 AM 57 97 0 0 3.13
5/5/2018 3:00 AM 58 99 0 0 5.2
5/5/2018 4:00 AM 59 97 0 0 6.78
5/5/2018 5:00 AM 59 95 0 0 5.9
5/5/2018 6:00 AM 57 93 0 0 5.15
5/5/2018 7:00 AM 59 92 0.33 0 2.8
5/5/2018 8:00 AM 64 81 0.99 0 2.83
5/5/2018 9:00 AM 68 71 1.7 0 5.45
5/5/2018 10:00 AM 72 59 2.35 0 7.28
5/5/2018 11:00 AM 74 49 2.91 0 8.82
5/5/2018 12:00 PM 76 41 3.3 0 9.28
5/5/2018 1:00 PM 77 38 3.44 0 8.7
5/5/2018 2:00 PM 78 36 3.39 0 8.88
5/5/2018 3:00 PM 78 34 1.43 0 9.07
5/5/2018 4:00 PM 79 32 2.59 0 8.78
5/5/2018 5:00 PM 79 31 1.96 0 8.78
5/5/2018 6:00 PM 78 31 1.25 0 7.65
5/5/2018 7:00 PM 76 37 0.52 0 5.45
5/5/2018 8:00 PM 73 39 0.04 0 3.9
5/5/2018 9:00 PM 72 41 0 0 3.42
5/5/2018 10:00 PM 71 40 0 0 3.85
5/5/2018 11:00 PM 69 42 0 0 1.98
Data Summary 68 60 26.20 0.00 5.78